Archimede — IXZR — position and weather

sailwx.info

Track history (hours):
 
Tides and Currents Weather Stations Pressure Air Temp Water Temp Dewpoint Dewpoint Depression Visibility Wind Speed Wind Dir Waves Ship Positions

Archimede

Last reported at 2016-Sep-30 20:33 UTC. Time now 2016-Sep-30 22:01 UTC.
Position N 38°08' E 015°32'.

; draft 3.1 m.

Type: Ship. MMSI: 247054700.

Date/timePositionNaut miles runAvg speedWind from/ knotsBaromVisibWave heightAir tempDewpointWater temp
2016-Sep-30 20:33N 38°08' E 015°32'7 2.3
2016-Sep-30 17:34N 38°13' E 015°38'7 6.6
2016-Sep-30 16:33N 38°08' E 015°33'5 2.5
2016-Sep-30 14:33N 38°12' E 015°37'5 5.1
2016-Sep-30 13:34N 38°08' E 015°32'7 2.2
2016-Sep-30 10:33N 38°13' E 015°38'2 0.8
2016-Sep-30 08:34N 38°12' E 015°37'2 0.8
2016-Sep-30 06:34N 38°13' E 015°38'3 1.1
2016-Sep-30 03:34N 38°13' E 015°34'3 3.4
2016-Sep-30 02:33N 38°13' E 015°38'7 2.5
2016-Sep-29 23:33N 38°08' E 015°31'0 0.0
2016-Sep-29 21:33N 38°08' E 015°31'7 7.4
2016-Sep-29 20:33N 38°13' E 015°38'7 7.4
2016-Sep-29 19:33N 38°08' E 015°31'7 2.4
2016-Sep-29 16:34N 38°13' E 015°37'6 5.8
2016-Sep-29 15:34N 38°08' E 015°34'3 2.6
2016-Sep-29 14:33N 38°11' E 015°35'3 2.6
2016-Sep-29 13:33N 38°13' E 015°37'2 0.3
2016-Sep-29 08:34N 38°11' E 015°37'5 4.9
2016-Sep-29 07:33N 38°08' E 015°32'6 0.9
2016-Sep-29 00:33N 38°13' E 015°37'7 2.2
2016-Sep-28 21:33N 38°08' E 015°31'0 0.0
2016-Sep-28 19:33N 38°08' E 015°31'4 1.5
2016-Sep-28 16:34N 38°11' E 015°35'2 2.3
2016-Sep-28 15:34N 38°09' E 015°36'3 1.0
2016-Sep-28 12:33N 38°08' E 015°32'5 1.2
2016-Sep-28 08:34N 38°11' E 015°37'1 0.1
2016-Sep-28 03:33N 38°11' E 015°37'5 4.7
2016-Sep-28 02:34N 38°08' E 015°32'7 6.9
2016-Sep-28 01:34N 38°13' E 015°38'1 0.4
2016-Sep-27 23:34N 38°13' E 015°37'3 0.7
2016-Sep-27 19:33N 38°13' E 015°34'2 0.4
2016-Sep-27 14:33N 38°11' E 015°35'4 3.5
2016-Sep-27 13:33N 38°13' E 015°38'7 2.5
2016-Sep-27 10:33N 38°08' E 015°31'7 0.7
2016-Sep-27 00:34N 38°13' E 015°38'0 0.1
2016-Sep-26 20:33N 38°13' E 015°38'5 1.1
2016-Sep-26 15:33N 38°09' E 015°35'3 1.7
2016-Sep-26 13:33N 38°11' E 015°37'2 1.1
2016-Sep-26 11:33N 38°13' E 015°38'2 0.8
2016-Sep-26 08:33N 38°11' E 015°37'4 0.7
2016-Sep-26 02:34N 38°09' E 015°33'6 6.2
2016-Sep-26 01:33N 38°13' E 015°38'4 4.1
2016-Sep-26 00:33N 38°09' E 015°37'5 1.5
2016-Sep-25 21:33N 38°08' E 015°31'0 0.1
2016-Sep-25 17:33N 38°08' E 015°32'7 7.2
2016-Sep-25 16:34N 38°13' E 015°38'7 7.2
2016-Sep-25 15:33N 38°08' E 015°32'6 6.0
2016-Sep-25 14:34N 38°13' E 015°36'2 1.2
2016-Sep-25 12:33N 38°11' E 015°35'4 3.5
2016-Sep-25 11:33N 38°13' E 015°38'0 0.0
2016-Sep-25 10:33N 38°13' E 015°38'0 0.0
2016-Sep-25 09:34N 38°13' E 015°38'6 2.9
2016-Sep-25 07:33N 38°09' E 015°33'5 1.8
2016-Sep-25 04:34N 38°13' E 015°37'2 0.4
2016-Sep-25 00:33N 38°12' E 015°37'2 0.9
2016-Sep-24 22:33N 38°13' E 015°38'7 7.4
2016-Sep-24 21:33N 38°08' E 015°31'0 0.0
2016-Sep-24 19:33N 38°08' E 015°31'7 7.6
2016-Sep-24 18:33N 38°13' E 015°38'6 6.0
2016-Sep-24 17:33N 38°08' E 015°34'5 5.2
2016-Sep-24 16:33N 38°13' E 015°37'0 0.2
2016-Sep-24 14:33N 38°13' E 015°36'5 2.6
2016-Sep-24 12:33N 38°09' E 015°33'2 0.8
2016-Sep-24 10:33N 38°08' E 015°31'7 7.6
2016-Sep-24 09:34N 38°13' E 015°38'1 0.2
2016-Sep-24 03:33N 38°12' E 015°37'6 6.3
2016-Sep-24 02:33N 38°08' E 015°31'7 7.5
2016-Sep-24 01:33N 38°13' E 015°38'2 2.1
2016-Sep-24 00:33N 38°11' E 015°37'2 0.4
2016-Sep-23 19:33N 38°13' E 015°38'4 2.2
2016-Sep-23 17:33N 38°10' E 015°34'3 2.6
2016-Sep-23 16:33N 38°11' E 015°37'4 4.4
2016-Sep-23 15:33N 38°09' E 015°33'1 0.3
2016-Sep-23 13:33N 38°08' E 015°32'4 0.9
2016-Sep-23 09:34N 38°10' E 015°36'1 0.5
2016-Sep-23 06:34N 38°10' E 015°35'4 0.8
2016-Sep-23 01:28N 38°13' E 015°38'7 8.1
2016-Sep-23 00:33N 38°08' E 015°31'7 7.4
2016-Sep-22 23:33N 38°13' E 015°38'7 2.4
2016-Sep-22 20:34N 38°08' E 015°32'7 0.9
2016-Sep-22 12:33N 38°13' E 015°38'7 0.6
2016-Sep-22 00:33N 38°08' E 015°32'7 7.2
2016-Sep-21 23:33N 38°13' E 015°38'7 7.4
2016-Sep-21 22:33N 38°08' E 015°31'7 2.3
2016-Sep-21 19:33N 38°13' E 015°37'1 0.4
2016-Sep-21 16:33N 38°12' E 015°37'4 0.5
2016-Sep-21 09:34N 38°09' E 015°35'3 2.5
2016-Sep-21 08:34N 38°11' E 015°35'  
Track history (hours):
 
Tides and Currents Weather Stations Pressure Air Temp Water Temp Dewpoint Dewpoint Depression Visibility Wind Speed Wind Dir Waves Ship Positions

Archimede

Last reported at 2016-Sep-30 20:33 UTC. Time now 2016-Sep-30 22:01 UTC.
Position N 38°08' E 015°32'.

; draft 3.1 m.

Type: Ship. MMSI: 247054700.

Date/timePositionNaut miles runAvg speedWind from/ knotsBaromVisibWave heightAir tempDewpointWater temp
2016-Sep-30 20:33N 38°08' E 015°32'7 2.3
2016-Sep-30 17:34N 38°13' E 015°38'7 6.6
2016-Sep-30 16:33N 38°08' E 015°33'5 2.5
2016-Sep-30 14:33N 38°12' E 015°37'5 5.1
2016-Sep-30 13:34N 38°08' E 015°32'7 2.2
2016-Sep-30 10:33N 38°13' E 015°38'2 0.8
2016-Sep-30 08:34N 38°12' E 015°37'2 0.8
2016-Sep-30 06:34N 38°13' E 015°38'3 1.1
2016-Sep-30 03:34N 38°13' E 015°34'3 3.4
2016-Sep-30 02:33N 38°13' E 015°38'7 2.5
2016-Sep-29 23:33N 38°08' E 015°31'0 0.0
2016-Sep-29 21:33N 38°08' E 015°31'7 7.4
2016-Sep-29 20:33N 38°13' E 015°38'7 7.4
2016-Sep-29 19:33N 38°08' E 015°31'7 2.4
2016-Sep-29 16:34N 38°13' E 015°37'6 5.8
2016-Sep-29 15:34N 38°08' E 015°34'3 2.6
2016-Sep-29 14:33N 38°11' E 015°35'3 2.6
2016-Sep-29 13:33N 38°13' E 015°37'2 0.3
2016-Sep-29 08:34N 38°11' E 015°37'5 4.9
2016-Sep-29 07:33N 38°08' E 015°32'6 0.9
2016-Sep-29 00:33N 38°13' E 015°37'7 2.2
2016-Sep-28 21:33N 38°08' E 015°31'0 0.0
2016-Sep-28 19:33N 38°08' E 015°31'4 1.5
2016-Sep-28 16:34N 38°11' E 015°35'2 2.3
2016-Sep-28 15:34N 38°09' E 015°36'3 1.0
2016-Sep-28 12:33N 38°08' E 015°32'5 1.2
2016-Sep-28 08:34N 38°11' E 015°37'1 0.1
2016-Sep-28 03:33N 38°11' E 015°37'5 4.7
2016-Sep-28 02:34N 38°08' E 015°32'7 6.9
2016-Sep-28 01:34N 38°13' E 015°38'1 0.4
2016-Sep-27 23:34N 38°13' E 015°37'3 0.7
2016-Sep-27 19:33N 38°13' E 015°34'2 0.4
2016-Sep-27 14:33N 38°11' E 015°35'4 3.5
2016-Sep-27 13:33N 38°13' E 015°38'7 2.5
2016-Sep-27 10:33N 38°08' E 015°31'7 0.7
2016-Sep-27 00:34N 38°13' E 015°38'0 0.1
2016-Sep-26 20:33N 38°13' E 015°38'5 1.1
2016-Sep-26 15:33N 38°09' E 015°35'3 1.7
2016-Sep-26 13:33N 38°11' E 015°37'2 1.1
2016-Sep-26 11:33N 38°13' E 015°38'2 0.8
2016-Sep-26 08:33N 38°11' E 015°37'4 0.7
2016-Sep-26 02:34N 38°09' E 015°33'6 6.2
2016-Sep-26 01:33N 38°13' E 015°38'4 4.1
2016-Sep-26 00:33N 38°09' E 015°37'5 1.5
2016-Sep-25 21:33N 38°08' E 015°31'0 0.1
2016-Sep-25 17:33N 38°08' E 015°32'7 7.2
2016-Sep-25 16:34N 38°13' E 015°38'7 7.2
2016-Sep-25 15:33N 38°08' E 015°32'6 6.0
2016-Sep-25 14:34N 38°13' E 015°36'2 1.2
2016-Sep-25 12:33N 38°11' E 015°35'4 3.5
2016-Sep-25 11:33N 38°13' E 015°38'0 0.0
2016-Sep-25 10:33N 38°13' E 015°38'0 0.0
2016-Sep-25 09:34N 38°13' E 015°38'6 2.9
2016-Sep-25 07:33N 38°09' E 015°33'5 1.8
2016-Sep-25 04:34N 38°13' E 015°37'2 0.4
2016-Sep-25 00:33N 38°12' E 015°37'2 0.9
2016-Sep-24 22:33N 38°13' E 015°38'7 7.4
2016-Sep-24 21:33N 38°08' E 015°31'0 0.0
2016-Sep-24 19:33N 38°08' E 015°31'7 7.6
2016-Sep-24 18:33N 38°13' E 015°38'6 6.0
2016-Sep-24 17:33N 38°08' E 015°34'5 5.2
2016-Sep-24 16:33N 38°13' E 015°37'0 0.2
2016-Sep-24 14:33N 38°13' E 015°36'5 2.6
2016-Sep-24 12:33N 38°09' E 015°33'2 0.8
2016-Sep-24 10:33N 38°08' E 015°31'7 7.6
2016-Sep-24 09:34N 38°13' E 015°38'1 0.2
2016-Sep-24 03:33N 38°12' E 015°37'6 6.3
2016-Sep-24 02:33N 38°08' E 015°31'7 7.5
2016-Sep-24 01:33N 38°13' E 015°38'2 2.1
2016-Sep-24 00:33N 38°11' E 015°37'2 0.4
2016-Sep-23 19:33N 38°13' E 015°38'4 2.2
2016-Sep-23 17:33N 38°10' E 015°34'3 2.6
2016-Sep-23 16:33N 38°11' E 015°37'4 4.4
2016-Sep-23 15:33N 38°09' E 015°33'1 0.3
2016-Sep-23 13:33N 38°08' E 015°32'4 0.9
2016-Sep-23 09:34N 38°10' E 015°36'1 0.5
2016-Sep-23 06:34N 38°10' E 015°35'4 0.8
2016-Sep-23 01:28N 38°13' E 015°38'7 8.1
2016-Sep-23 00:33N 38°08' E 015°31'7 7.4
2016-Sep-22 23:33N 38°13' E 015°38'7 2.4
2016-Sep-22 20:34N 38°08' E 015°32'7 0.9
2016-Sep-22 12:33N 38°13' E 015°38'7 0.6
2016-Sep-22 00:33N 38°08' E 015°32'7 7.2
2016-Sep-21 23:33N 38°13' E 015°38'7 7.4
2016-Sep-21 22:33N 38°08' E 015°31'7 2.3
2016-Sep-21 19:33N 38°13' E 015°37'1 0.4
2016-Sep-21 16:33N 38°12' E 015°37'4 0.5
2016-Sep-21 09:34N 38°09' E 015°35'3 2.5
2016-Sep-21 08:34N 38°11' E 015°35'  

Dump ship's entire track history